createdAt,value
2022-12-04T00:00:24.831Z,80.08
2022-12-04T00:02:51.352Z,81.24
2022-12-04T00:05:18.005Z,79.04
2022-12-04T00:07:45.375Z,78.53
2022-12-04T00:10:12.166Z,80.81
2022-12-04T00:12:38.833Z,79.78
2022-12-04T00:17:52.716Z,82.09
2022-12-04T00:20:19.947Z,81.06
2022-12-04T00:22:46.527Z,80.78
2022-12-04T00:25:13.051Z,82.45
2022-12-04T00:28:03.801Z,80.24
2022-12-04T00:30:30.453Z,81.08
2022-12-04T00:32:56.966Z,83.20
2022-12-04T00:35:23.563Z,80.98
2022-12-04T00:37:50.098Z,78.83
2022-12-04T00:40:36.833Z,78.03
2022-12-04T00:43:23.608Z,78.61
2022-12-04T00:45:50.440Z,78.99
2022-12-04T00:48:17.117Z,78.28
2022-12-04T00:50:43.689Z,79.55
2022-12-04T00:53:11.146Z,77.05
2022-12-04T00:55:42.311Z,77.05
2022-12-04T00:58:14.629Z,79.42
2022-12-04T01:00:43.195Z,78.00
2022-12-04T01:03:10.378Z,79.52
2022-12-04T01:05:42.070Z,81.26
2022-12-04T01:08:20.866Z,81.48
2022-12-04T01:11:22.447Z,81.20
2022-12-04T01:14:10.713Z,79.69
2022-12-04T01:16:39.072Z,82.13
2022-12-04T01:19:09.027Z,82.21
2022-12-04T01:21:36.878Z,82.45
2022-12-04T01:24:04.318Z,83.34
2022-12-04T01:26:31.788Z,80.57
2022-12-04T01:29:05.768Z,82.71
2022-12-04T01:31:32.444Z,81.06
2022-12-04T01:33:59.076Z,79.85
2022-12-04T01:36:28.094Z,80.42
2022-12-04T01:38:57.031Z,79.09
2022-12-04T01:41:26.922Z,82.37
2022-12-04T02:27:07.001Z,81.20
2022-12-04T02:32:22.142Z,84.75
2022-12-04T02:35:07.213Z,81.86
2022-12-04T02:37:38.402Z,80.85
2022-12-04T02:40:07.966Z,81.66
2022-12-04T02:42:38.979Z,82.51
2022-12-04T02:45:09.698Z,84.47
2022-12-04T02:47:39.932Z,83.25
2022-12-04T02:50:13.991Z,82.78
2022-12-04T02:52:47.366Z,82.66
2022-12-04T02:55:21.772Z,85.00
2022-12-04T02:57:56.030Z,84.27
2022-12-04T03:00:22.712Z,83.22
2022-12-04T03:03:48.921Z,84.35
2022-12-04T03:07:09.646Z,84.22
2022-12-04T03:09:42.921Z,82.20
2022-12-04T03:12:19.447Z,80.76
2022-12-04T03:15:00.275Z,81.55
2022-12-04T03:17:36.117Z,82.66
2022-12-04T03:20:08.683Z,82.84
2022-12-04T03:25:32.007Z,82.57
2022-12-04T03:28:02.504Z,81.62
2022-12-04T03:30:36.816Z,82.62
2022-12-04T03:33:13.154Z,82.52
2022-12-04T03:35:51.553Z,80.93
2022-12-04T03:38:33.786Z,82.35
2022-12-04T03:41:30.162Z,80.60
2022-12-04T03:44:08.891Z,82.87
2022-12-04T03:46:45.420Z,83.21
2022-12-04T03:49:19.419Z,81.30
2022-12-04T03:52:15.395Z,82.05
2022-12-04T03:54:51.914Z,78.88
2022-12-04T03:57:24.016Z,83.16
2022-12-04T03:59:59.089Z,82.12
2022-12-04T04:02:37.584Z,83.77
2022-12-04T04:05:08.784Z,87.01
2022-12-04T04:07:46.435Z,87.15
2022-12-04T04:10:17.065Z,87.06
2022-12-04T04:13:13.355Z,87.36
2022-12-04T04:16:04.544Z,87.25
2022-12-04T04:18:51.417Z,88.39
2022-12-04T04:21:41.913Z,87.66
2022-12-04T04:24:18.909Z,86.63
2022-12-04T04:26:48.096Z,87.08
2022-12-04T04:29:15.082Z,86.16
2022-12-04T04:31:53.944Z,84.94
2022-12-04T04:34:40.397Z,83.37
2022-12-04T04:37:29.096Z,82.58
2022-12-04T04:40:19.062Z,86.05
2022-12-04T04:42:56.771Z,84.53
2022-12-04T04:45:45.573Z,85.00
2022-12-04T04:48:27.372Z,83.24
2022-12-04T04:50:55.076Z,81.93
2022-12-04T04:53:26.915Z,81.25
2022-12-04T04:55:53.842Z,82.02
2022-12-04T04:58:21.618Z,83.97
2022-12-04T05:01:01.700Z,83.42
2022-12-04T05:03:29.696Z,85.58
2022-12-04T05:05:56.761Z,84.52
2022-12-04T05:08:41.872Z,85.56
2022-12-04T05:11:13.269Z,84.81
2022-12-04T05:13:40.745Z,86.29
2022-12-04T05:16:11.797Z,85.47
2022-12-04T05:18:38.538Z,84.45
2022-12-04T05:21:10.320Z,85.10
2022-12-04T05:23:36.888Z,83.59
2022-12-04T05:26:05.138Z,81.73
2022-12-04T05:28:31.772Z,80.48
2022-12-04T05:31:02.813Z,79.38
2022-12-04T05:33:30.660Z,81.84
2022-12-04T05:36:06.079Z,80.46
2022-12-04T05:38:33.330Z,83.28
2022-12-04T05:41:01.488Z,83.06
2022-12-04T05:43:28.469Z,81.59
2022-12-04T05:45:55.033Z,82.39
2022-12-04T05:48:21.649Z,82.40
2022-12-04T05:50:48.198Z,81.87
2022-12-04T05:53:14.822Z,81.88
2022-12-04T05:55:41.367Z,82.68
2022-12-04T05:58:07.911Z,79.52
2022-12-04T06:00:34.464Z,79.67
2022-12-04T06:06:51.325Z,79.53
2022-12-04T06:09:17.894Z,81.58
2022-12-04T06:11:45.020Z,79.64
2022-12-04T06:14:14.909Z,79.67
2022-12-04T06:16:52.209Z,78.22
2022-12-04T06:19:20.572Z,81.00
2022-12-04T06:21:49.028Z,78.86
2022-12-04T06:24:22.960Z,78.72
2022-12-04T06:27:25.756Z,78.91
2022-12-04T06:29:37.198Z,77.77
2022-12-04T06:32:04.099Z,78.83
2022-12-04T06:34:30.820Z,77.59
2022-12-04T06:37:26.195Z,76.86
2022-12-04T06:39:53.100Z,75.64
2022-12-04T06:42:20.108Z,76.89
2022-12-04T06:44:49.862Z,78.47
2022-12-04T06:51:18.805Z,78.24
2022-12-04T06:53:45.874Z,77.74
2022-12-04T06:56:17.981Z,79.31
2022-12-04T06:58:45.634Z,78.29
2022-12-04T07:01:18.662Z,77.70
2022-12-04T07:03:51.045Z,78.22
2022-12-04T07:06:20.330Z,79.90
2022-12-04T07:08:49.819Z,81.66
2022-12-04T07:11:16.683Z,82.54
2022-12-04T07:13:43.674Z,80.86
2022-12-04T07:18:46.339Z,81.10
2022-12-04T07:21:21.518Z,83.02
2022-12-04T07:23:53.173Z,84.89
2022-12-04T07:26:21.156Z,83.24
2022-12-04T07:28:48.514Z,83.36
2022-12-04T07:31:17.850Z,84.06
2022-12-04T07:33:45.805Z,81.56
2022-12-04T07:36:15.550Z,82.87
2022-12-04T07:38:42.860Z,83.25
2022-12-04T07:41:11.849Z,84.75
2022-12-04T07:43:38.695Z,86.20
2022-12-04T07:46:26.207Z,85.96
2022-12-04T07:48:55.626Z,87.39
2022-12-04T07:51:24.550Z,86.94
2022-12-04T07:53:53.334Z,88.12
2022-12-04T07:56:20.381Z,88.79
2022-12-04T07:58:47.489Z,88.08
2022-12-04T08:01:24.070Z,86.76
2022-12-04T08:03:54.627Z,86.77
2022-12-04T08:06:23.007Z,83.93
2022-12-04T08:08:50.771Z,83.76
2022-12-04T08:11:21.166Z,85.17
2022-12-04T08:13:48.180Z,84.42
2022-12-04T08:16:15.725Z,84.51
2022-12-04T08:18:46.786Z,84.20
2022-12-04T08:21:16.961Z,85.00
2022-12-04T08:23:44.514Z,84.12
2022-12-04T08:26:12.728Z,84.22
2022-12-04T08:28:40.008Z,83.56
2022-12-04T08:31:11.030Z,85.47
2022-12-04T08:33:38.123Z,83.91
2022-12-04T08:36:09.826Z,84.02
2022-12-04T08:38:36.786Z,85.24
2022-12-04T08:41:05.618Z,83.19
2022-12-04T08:43:32.828Z,83.80
2022-12-04T08:46:01.724Z,81.75
2022-12-04T08:48:28.373Z,81.71
2022-12-04T08:50:55.710Z,79.37
2022-12-04T08:53:23.111Z,80.48
2022-12-04T08:55:50.098Z,80.99
2022-12-04T08:58:17.345Z,80.40
2022-12-04T09:00:44.038Z,80.75
2022-12-04T09:03:19.166Z,80.36
2022-12-04T09:05:46.653Z,80.54
2022-12-04T09:08:16.228Z,80.01
2022-12-04T09:10:44.551Z,79.43
2022-12-04T09:13:11.086Z,77.83
2022-12-04T09:15:40.832Z,77.01
2022-12-04T09:18:08.649Z,76.20
2022-12-04T09:20:35.812Z,78.52
2022-12-04T09:23:04.934Z,77.78
2022-12-04T09:25:35.291Z,77.84
2022-12-04T09:28:01.892Z,76.46
2022-12-04T09:30:28.523Z,76.88
2022-12-04T09:32:55.081Z,76.75
2022-12-04T09:35:21.632Z,74.94
2022-12-04T09:37:48.179Z,74.49
2022-12-04T09:40:37.109Z,74.75
2022-12-04T09:43:31.187Z,73.85
2022-12-04T09:46:04.180Z,73.66
2022-12-04T09:48:38.976Z,73.10
2022-12-04T09:51:08.214Z,74.16
2022-12-04T09:53:47.347Z,74.19
2022-12-04T09:56:17.318Z,71.92
2022-12-04T09:58:53.261Z,73.27
2022-12-04T10:01:40.812Z,76.11
2022-12-04T10:04:10.396Z,74.02
2022-12-04T10:06:47.732Z,74.17
2022-12-04T10:09:25.643Z,73.11
2022-12-04T10:12:03.560Z,73.13
2022-12-04T10:14:39.217Z,71.58
2022-12-04T10:17:39.644Z,71.33
2022-12-04T10:20:44.658Z,70.98
2022-12-04T10:23:32.637Z,70.06
2022-12-04T10:26:01.470Z,72.29
2022-12-04T10:28:36.800Z,70.78
2022-12-04T10:31:06.395Z,70.13
2022-12-04T10:33:43.987Z,68.69
2022-12-04T10:36:17.008Z,68.35
2022-12-04T10:38:55.723Z,68.11
2022-12-04T10:41:27.343Z,69.70
2022-12-04T10:43:54.201Z,68.54
2022-12-04T10:46:30.457Z,69.10
2022-12-04T10:49:09.507Z,67.89
2022-12-04T10:51:40.350Z,67.82
2022-12-04T10:56:51.028Z,64.91
2022-12-04T11:04:43.429Z,69.10
2022-12-04T11:10:18.219Z,69.61
2022-12-04T11:13:00.892Z,68.35
2022-12-04T11:15:31.602Z,68.27
2022-12-04T11:26:43.009Z,67.22
2022-12-04T11:32:08.239Z,69.83
2022-12-04T11:34:40.084Z,70.46
2022-12-04T11:37:18.724Z,70.92
2022-12-04T11:40:06.915Z,71.20
2022-12-04T11:42:36.989Z,68.69
2022-12-04T11:45:21.361Z,68.48
2022-12-04T11:48:19.539Z,68.62
2022-12-04T11:50:46.031Z,68.30
2022-12-04T11:56:39.396Z,68.92
2022-12-04T11:59:24.303Z,68.99
2022-12-04T12:02:11.191Z,69.05
2022-12-04T12:04:47.710Z,67.98
2022-12-04T12:07:38.396Z,68.53
2022-12-04T12:10:27.977Z,68.36
2022-12-04T12:13:15.890Z,68.22
2022-12-04T12:16:07.994Z,66.50
2022-12-04T12:19:16.691Z,66.64
2022-12-04T12:21:43.254Z,65.55
2022-12-04T12:24:19.571Z,64.63
2022-12-04T12:27:28.898Z,63.79
2022-12-04T12:38:50.551Z,67.22
2022-12-04T12:46:51.785Z,66.59
2022-12-04T12:52:06.487Z,66.17
2022-12-04T12:54:39.109Z,65.29
2022-12-04T12:57:36.779Z,65.42
2022-12-04T13:00:20.477Z,66.43
2022-12-04T13:03:01.733Z,65.20
2022-12-04T13:05:40.813Z,64.31
2022-12-04T13:08:22.805Z,64.20
2022-12-04T13:11:07.458Z,64.66
2022-12-04T13:13:41.147Z,64.86
2022-12-04T13:16:27.135Z,65.54
2022-12-04T13:24:28.749Z,66.29
2022-12-04T13:27:19.486Z,66.59
2022-12-04T13:30:01.791Z,67.47
2022-12-04T13:35:09.255Z,67.53
2022-12-04T13:38:22.794Z,67.71
2022-12-04T13:41:12.609Z,67.35
2022-12-04T13:43:42.368Z,67.88
2022-12-04T13:50:57.293Z,67.38
2022-12-04T13:53:32.553Z,67.34
2022-12-04T13:56:04.441Z,66.43
2022-12-04T14:01:38.573Z,66.71
2022-12-04T14:04:44.706Z,67.99
2022-12-04T14:07:51.561Z,67.98
2022-12-04T14:10:45.209Z,67.64
2022-12-04T14:16:06.588Z,66.73
2022-12-04T14:18:33.333Z,67.40
2022-12-04T14:21:05.353Z,67.81
2022-12-04T14:23:41.146Z,67.93
2022-12-04T14:27:03.675Z,67.37
2022-12-04T14:29:56.170Z,67.22
2022-12-04T14:32:27.133Z,67.22
2022-12-04T14:40:25.264Z,67.29
2022-12-04T14:46:06.298Z,67.04
2022-12-04T14:49:04.018Z,66.97
2022-12-04T14:54:46.344Z,65.80
2022-12-04T14:59:56.088Z,64.93
2022-12-04T15:05:30.366Z,65.84
2022-12-04T15:08:06.667Z,65.56
2022-12-04T15:13:27.384Z,66.40
2022-12-04T15:15:54.181Z,65.18
2022-12-04T15:21:00.395Z,66.15
2022-12-04T15:23:38.939Z,65.50
2022-12-04T15:26:22.181Z,65.65
2022-12-04T15:28:52.574Z,65.64
2022-12-04T15:31:28.028Z,65.96
2022-12-04T15:34:12.224Z,65.85
2022-12-04T15:36:46.723Z,66.76
2022-12-04T15:39:18.620Z,66.83
2022-12-04T15:41:45.555Z,66.36
2022-12-04T15:44:42.384Z,66.96
2022-12-04T15:49:44.163Z,66.39
2022-12-04T15:52:14.202Z,67.32
2022-12-04T15:55:17.015Z,66.55
2022-12-04T15:57:50.370Z,66.60
2022-12-04T16:00:33.033Z,70.38
2022-12-04T16:03:37.245Z,70.58
2022-12-04T16:06:25.600Z,72.23
2022-12-04T16:11:46.480Z,73.10
2022-12-04T16:14:12.995Z,73.71
2022-12-04T16:17:06.239Z,71.39
2022-12-04T16:19:39.439Z,70.67
2022-12-04T16:27:33.283Z,68.99
2022-12-04T16:32:55.491Z,71.91
2022-12-04T16:37:58.280Z,72.77
2022-12-04T16:40:24.870Z,72.63
2022-12-04T16:42:51.551Z,72.91
2022-12-04T16:45:24.183Z,72.80
2022-12-04T16:47:50.811Z,73.99
2022-12-04T16:50:17.492Z,71.59
2022-12-04T16:52:44.333Z,70.48
2022-12-04T16:55:33.329Z,72.14
2022-12-04T16:57:59.874Z,71.85
2022-12-04T17:00:26.546Z,72.65
2022-12-04T17:02:53.258Z,71.62
2022-12-04T17:07:56.154Z,72.52
2022-12-04T17:10:24.339Z,71.71
2022-12-04T17:12:55.558Z,72.48
2022-12-04T17:15:30.056Z,73.08
2022-12-04T17:23:34.926Z,72.77
2022-12-04T17:26:20.456Z,74.69
2022-12-04T17:28:50.412Z,74.80
2022-12-04T17:31:21.221Z,73.67
2022-12-04T17:33:51.409Z,75.57
2022-12-04T17:36:22.092Z,73.66
2022-12-04T17:38:53.237Z,72.78
2022-12-04T17:41:19.794Z,72.77
2022-12-04T17:43:46.958Z,73.89
2022-12-04T17:46:21.567Z,75.21
2022-12-04T17:48:49.041Z,73.97
2022-12-04T17:51:21.353Z,73.00
2022-12-04T17:53:51.385Z,73.84
2022-12-04T17:58:54.038Z,74.49
2022-12-04T18:01:24.126Z,73.13
2022-12-04T18:03:56.325Z,78.76
2022-12-04T18:06:25.587Z,78.49
2022-12-04T18:08:53.363Z,77.39
2022-12-04T18:11:22.410Z,76.17
2022-12-04T18:13:53.496Z,74.80
2022-12-04T18:19:02.120Z,74.74
2022-12-04T18:21:30.366Z,76.27
2022-12-04T18:23:59.729Z,75.74
2022-12-04T18:26:28.193Z,75.87
2022-12-04T18:28:55.645Z,75.52
2022-12-04T18:31:22.548Z,75.66
2022-12-04T18:33:50.053Z,75.67
2022-12-04T18:36:19.531Z,76.96
2022-12-04T18:38:47.176Z,76.12
2022-12-04T18:41:14.783Z,75.97
2022-12-04T18:43:43.581Z,75.88
2022-12-04T18:46:15.884Z,76.89
2022-12-04T18:48:44.416Z,78.06
2022-12-04T18:51:32.691Z,78.46
2022-12-04T18:54:05.807Z,78.00
2022-12-04T18:56:35.347Z,76.74
2022-12-04T18:59:08.491Z,76.51
2022-12-04T19:01:35.784Z,76.72
2022-12-04T19:04:05.230Z,76.55
2022-12-04T19:06:35.621Z,76.97
2022-12-04T19:09:06.008Z,76.73
2022-12-04T19:11:33.487Z,77.04
2022-12-04T19:14:01.761Z,76.29
2022-12-04T19:16:29.649Z,76.17
2022-12-04T19:18:57.493Z,76.48
2022-12-04T19:21:24.802Z,75.83
2022-12-04T19:24:01.002Z,77.04
2022-12-04T19:26:29.285Z,77.95
2022-12-04T19:28:56.541Z,77.23
2022-12-04T19:31:27.498Z,76.95
2022-12-04T19:33:58.462Z,76.98
2022-12-04T19:36:30.252Z,76.20
2022-12-04T19:38:57.914Z,76.73
2022-12-04T19:41:26.898Z,76.52
2022-12-04T19:43:56.966Z,76.21
2022-12-04T19:46:28.130Z,78.24
2022-12-04T19:48:58.254Z,77.91
2022-12-04T19:51:25.766Z,77.90
2022-12-04T19:53:54.926Z,77.04
2022-12-04T19:56:26.726Z,77.01
2022-12-04T19:58:56.277Z,77.27
2022-12-04T20:01:31.525Z,76.92
2022-12-04T20:04:05.441Z,76.56
2022-12-04T20:06:38.009Z,76.25
2022-12-04T20:09:08.108Z,76.69
2022-12-04T20:11:37.348Z,76.32
2022-12-04T20:14:05.250Z,75.58
2022-12-04T20:16:33.683Z,75.49
2022-12-04T20:19:02.001Z,75.78
2022-12-04T20:21:31.734Z,75.48
2022-12-04T20:24:02.068Z,76.66
2022-12-04T20:26:32.385Z,76.65
2022-12-04T20:29:00.865Z,75.98
2022-12-04T20:31:36.584Z,76.37
2022-12-04T20:34:05.935Z,75.31
2022-12-04T20:36:38.178Z,76.25
2022-12-04T20:39:08.031Z,75.85
2022-12-04T20:41:35.115Z,74.38
2022-12-04T20:44:04.837Z,74.96
2022-12-04T20:46:35.356Z,75.58
2022-12-04T20:49:06.295Z,75.40
2022-12-04T20:51:38.833Z,75.19
2022-12-04T20:54:08.056Z,74.67
2022-12-04T21:10:25.557Z,73.46
2022-12-04T21:13:16.555Z,73.75
2022-12-04T21:16:01.608Z,73.43
2022-12-04T21:18:29.473Z,72.89
2022-12-04T21:21:20.680Z,72.57
2022-12-04T21:23:47.256Z,72.43
2022-12-04T21:28:49.038Z,72.66
2022-12-04T21:43:18.314Z,72.01
2022-12-04T21:46:07.451Z,72.10
2022-12-04T21:48:51.741Z,72.40
2022-12-04T21:56:28.850Z,73.73
2022-12-04T21:58:55.889Z,73.04
2022-12-04T22:02:12.705Z,72.67
2022-12-04T22:05:10.812Z,72.50
2022-12-04T22:07:39.239Z,72.35
2022-12-04T22:24:54.015Z,70.35
2022-12-04T22:27:26.307Z,70.48
2022-12-04T22:29:55.796Z,71.54
2022-12-04T22:33:19.809Z,71.29
2022-12-04T22:36:35.211Z,71.01
2022-12-04T22:39:10.712Z,72.74
2022-12-04T22:44:14.182Z,72.05
2022-12-04T22:46:40.794Z,71.71
2022-12-04T22:57:13.600Z,70.55
2022-12-04T23:08:28.188Z,69.66
2022-12-04T23:11:04.771Z,70.35
2022-12-04T23:13:31.667Z,69.81
2022-12-04T23:15:58.285Z,69.39
2022-12-04T23:18:25.224Z,69.17
2022-12-04T23:21:22.883Z,68.92
2022-12-04T23:38:07.625Z,67.58
2022-12-04T23:40:34.198Z,68.32
2022-12-04T23:43:00.777Z,68.24
2022-12-04T23:45:27.336Z,68.45
2022-12-04T23:47:55.791Z,68.42
2022-12-04T23:50:24.669Z,68.60
2022-12-04T23:52:51.452Z,69.72
2022-12-04T23:55:34.705Z,69.55
2022-12-04T23:58:03.427Z,68.93
